Palotina, Brazil
Current Conditions -  °F | °C
As of 2:00 PM on Monday 24 Nov 2014 (Local Time) from SBCA Reporting Station
Broken Clouds Broken Clouds  
Wind Chill: 82°   Ceiling: 2200
Heat Index: 85°   Visibility: 6mi
Dew Point: 66°   Wind: 23mph
Humidity: 58%   Direction: 50°NE
Pressure: 29.97"   Gusts: NA
Location:  24.28°S, 53.84°W
Report Text: SBCA 241600Z 05020KT 9999 FEW015 BKN022 28/19 Q1015
Loading
Personal Weather Stations






























Interactive Weather Map New forecast layout! Learn more

10-Day Weather Forecast

Advertisements
Track Severe Weather on mobile